createdAt,value
2022-10-14T00:01:37.361Z,22.37
2022-10-14T00:04:08.657Z,19.07
2022-10-14T00:06:39.410Z,20.50
2022-10-14T00:09:12.209Z,19.33
2022-10-14T00:11:45.537Z,20.50
2022-10-14T00:14:18.529Z,19.60
2022-10-14T00:16:57.086Z,20.13
2022-10-14T00:19:26.974Z,19.30
2022-10-14T00:22:00.632Z,21.17
2022-10-14T00:24:34.742Z,20.40
2022-10-14T00:27:09.879Z,20.80
2022-10-14T00:29:39.881Z,19.63
2022-10-14T00:32:14.341Z,18.40
2022-10-14T00:34:45.496Z,21.67
2022-10-14T00:37:16.547Z,20.20
2022-10-14T00:39:46.945Z,20.63
2022-10-14T00:42:20.367Z,22.77
2022-10-14T00:45:09.258Z,21.80
2022-10-14T00:47:39.259Z,22.90
2022-10-14T00:50:14.857Z,22.00
2022-10-14T00:52:45.157Z,23.00
2022-10-14T00:55:20.252Z,21.00
2022-10-14T00:57:52.828Z,23.10
2022-10-14T01:00:24.793Z,23.13
2022-10-14T01:02:54.777Z,22.73
2022-10-14T01:05:27.801Z,25.57
2022-10-14T01:08:08.527Z,24.70
2022-10-14T01:10:45.714Z,22.10
2022-10-14T01:13:25.351Z,21.47
2022-10-14T01:16:03.857Z,21.43
2022-10-14T01:18:52.003Z,21.23
2022-10-14T01:21:29.936Z,21.87
2022-10-14T01:24:43.301Z,23.60
2022-10-14T01:27:51.508Z,23.27
2022-10-14T01:30:26.644Z,25.17
2022-10-14T01:33:09.099Z,24.27
2022-10-14T01:35:53.470Z,24.10
2022-10-14T01:38:30.063Z,24.43
2022-10-14T01:41:07.032Z,24.93
2022-10-14T01:43:39.057Z,24.40
2022-10-14T01:46:14.370Z,23.07
2022-10-14T01:48:48.304Z,24.80
2022-10-14T01:51:23.654Z,24.57
2022-10-14T01:53:57.882Z,27.00
2022-10-14T01:56:36.958Z,27.50
2022-10-14T01:59:12.575Z,27.27
2022-10-14T02:01:45.689Z,27.57
2022-10-14T02:04:20.804Z,28.57
2022-10-14T02:07:02.970Z,30.37
2022-10-14T02:09:41.880Z,29.90
2022-10-14T02:12:25.291Z,31.93
2022-10-14T02:15:02.904Z,33.57
2022-10-14T02:17:41.684Z,34.30
2022-10-14T02:20:26.471Z,46.13
2022-10-14T02:23:01.139Z,43.57
2022-10-14T02:25:37.601Z,49.77
2022-10-14T02:28:10.631Z,38.57
2022-10-14T02:30:48.972Z,44.07
2022-10-14T02:33:27.444Z,40.90
2022-10-14T02:35:58.803Z,37.80
2022-10-14T02:38:29.478Z,36.63
2022-10-14T02:40:59.903Z,31.60
2022-10-14T02:43:29.942Z,35.13
2022-10-14T02:46:02.137Z,35.00
2022-10-14T02:48:35.515Z,35.50
2022-10-14T02:51:06.887Z,38.53
2022-10-14T02:53:36.984Z,45.40
2022-10-14T02:56:07.623Z,38.27
2022-10-14T02:58:42.421Z,38.90
2022-10-14T03:01:13.064Z,32.70
2022-10-14T03:03:45.568Z,36.37
2022-10-14T03:06:16.556Z,30.67
2022-10-14T03:08:47.246Z,44.80
2022-10-14T03:11:17.725Z,34.50
2022-10-14T03:13:48.219Z,32.97
2022-10-14T03:16:18.476Z,35.33
2022-10-14T03:18:51.567Z,32.93
2022-10-14T03:21:30.089Z,37.83
2022-10-14T03:24:01.664Z,34.37
2022-10-14T03:26:36.525Z,36.00
2022-10-14T03:29:06.497Z,39.87
2022-10-14T03:31:54.814Z,35.53
2022-10-14T03:34:37.951Z,39.00
2022-10-14T03:37:15.278Z,54.53
2022-10-14T03:39:53.116Z,51.17
2022-10-14T03:42:23.599Z,66.60
2022-10-14T03:44:54.149Z,51.37
2022-10-14T03:47:29.019Z,58.47
2022-10-14T03:50:03.011Z,52.33
2022-10-14T03:52:46.739Z,50.87
2022-10-14T03:55:29.976Z,66.37
2022-10-14T03:58:01.137Z,59.13
2022-10-14T04:00:32.151Z,66.57
2022-10-14T04:03:25.746Z,37.60
2022-10-14T04:06:00.139Z,76.30
2022-10-14T04:08:32.302Z,41.60
2022-10-14T04:11:12.011Z,43.40
2022-10-14T04:13:43.573Z,35.53
2022-10-14T04:16:15.358Z,48.77
2022-10-14T04:19:01.295Z,45.73
2022-10-14T04:21:36.868Z,52.73
2022-10-14T04:24:08.547Z,60.43
2022-10-14T04:26:45.763Z,51.20
2022-10-14T04:29:26.650Z,59.47
2022-10-14T04:32:05.006Z,58.90
2022-10-14T04:34:35.022Z,55.73
2022-10-14T04:37:08.123Z,59.23
2022-10-14T04:39:49.429Z,46.83
2022-10-14T04:42:21.236Z,47.03
2022-10-14T04:44:54.771Z,36.00
2022-10-14T04:47:32.934Z,33.10
2022-10-14T04:50:05.733Z,43.70
2022-10-14T04:52:39.155Z,44.33
2022-10-14T04:55:14.072Z,42.23
2022-10-14T04:57:46.544Z,50.83
2022-10-14T05:00:18.733Z,49.50
2022-10-14T05:02:56.534Z,58.37
2022-10-14T05:05:32.738Z,66.60
2022-10-14T05:08:09.141Z,54.67
2022-10-14T05:10:43.341Z,38.00
2022-10-14T05:13:21.007Z,50.57
2022-10-14T05:16:01.653Z,36.23
2022-10-14T05:18:33.019Z,52.07
2022-10-14T05:21:07.001Z,52.87
2022-10-14T05:24:02.075Z,53.10
2022-10-14T05:26:35.973Z,60.33
2022-10-14T05:29:10.091Z,49.87
2022-10-14T05:31:42.561Z,43.10
2022-10-14T05:34:26.211Z,71.27
2022-10-14T05:36:56.622Z,74.27
2022-10-14T05:39:29.632Z,52.50
2022-10-14T05:42:00.980Z,51.77
2022-10-14T05:44:33.197Z,41.40
2022-10-14T05:47:04.212Z,49.27
2022-10-14T05:49:34.513Z,26.93
2022-10-14T05:52:07.878Z,25.20
2022-10-14T05:54:40.539Z,32.60
2022-10-14T05:57:12.224Z,37.43
2022-10-14T05:59:42.453Z,28.83
2022-10-14T06:02:12.980Z,25.23
2022-10-14T06:04:43.450Z,23.73
2022-10-14T06:07:13.802Z,24.03
2022-10-14T06:09:46.448Z,24.67
2022-10-14T06:12:16.866Z,26.70
2022-10-14T06:14:46.795Z,25.73
2022-10-14T06:17:17.706Z,26.30
2022-10-14T06:19:48.501Z,24.60
2022-10-14T06:22:18.504Z,23.93
2022-10-14T06:24:51.054Z,20.30
2022-10-14T06:27:21.215Z,19.63
2022-10-14T06:29:51.520Z,20.53
2022-10-14T06:32:22.088Z,19.17
2022-10-14T06:34:52.736Z,21.00
2022-10-14T06:37:23.006Z,21.53
2022-10-14T06:39:55.695Z,22.70
2022-10-14T06:42:25.838Z,20.97
2022-10-14T06:44:56.389Z,21.37
2022-10-14T06:47:27.236Z,23.00
2022-10-14T06:49:57.185Z,21.07
2022-10-14T06:52:28.836Z,21.67
2022-10-14T06:55:01.362Z,19.07
2022-10-14T06:57:31.793Z,19.17
2022-10-14T07:00:01.984Z,19.30
2022-10-14T07:02:32.385Z,18.47
2022-10-14T07:05:02.363Z,21.07
2022-10-14T07:07:32.859Z,19.93
2022-10-14T07:10:05.481Z,19.73
2022-10-14T07:12:35.961Z,19.90
2022-10-14T07:15:06.635Z,16.20
2022-10-14T07:17:36.699Z,18.93
2022-10-14T07:20:08.555Z,16.50
2022-10-14T07:22:39.260Z,15.23
2022-10-14T07:25:13.207Z,14.70
2022-10-14T07:27:44.230Z,15.73
2022-10-14T07:30:17.469Z,16.20
2022-10-14T07:32:48.369Z,16.50
2022-10-14T07:35:19.062Z,14.87
2022-10-14T07:37:50.875Z,15.30
2022-10-14T07:40:24.071Z,14.97
2022-10-14T07:42:54.379Z,14.63
2022-10-14T07:45:24.394Z,14.10
2022-10-14T07:47:54.558Z,14.77
2022-10-14T07:50:24.455Z,14.93
2022-10-14T07:53:00.203Z,12.43
2022-10-14T07:55:33.636Z,13.33
2022-10-14T07:58:03.936Z,12.30
2022-10-14T08:00:33.955Z,13.27
2022-10-14T08:03:04.031Z,12.63
2022-10-14T08:05:38.253Z,11.87
2022-10-14T08:08:09.200Z,10.77
2022-10-14T08:10:42.431Z,10.83
2022-10-14T08:13:13.540Z,11.50
2022-10-14T08:15:44.119Z,10.93
2022-10-14T08:18:14.859Z,10.10
2022-10-14T08:20:45.079Z,10.60
2022-10-14T08:23:18.995Z,9.70
2022-10-14T08:25:52.802Z,9.90
2022-10-14T08:28:23.136Z,7.47
2022-10-14T08:30:53.520Z,9.10
2022-10-14T08:33:24.505Z,7.73
2022-10-14T08:35:54.436Z,8.30
2022-10-14T08:38:26.270Z,10.00
2022-10-14T08:41:10.580Z,10.73
2022-10-14T08:43:44.746Z,8.77
2022-10-14T08:46:23.947Z,9.30
2022-10-14T08:48:58.711Z,8.43
2022-10-14T08:51:33.423Z,10.20
2022-10-14T08:54:09.343Z,10.97
2022-10-14T08:56:43.450Z,9.23
2022-10-14T08:59:17.503Z,11.10
2022-10-14T09:01:55.167Z,9.87
2022-10-14T09:04:25.121Z,9.80
2022-10-14T09:06:58.318Z,10.20
2022-10-14T09:09:33.443Z,10.27
2022-10-14T09:12:14.213Z,9.67
2022-10-14T09:14:48.686Z,9.57
2022-10-14T09:17:24.889Z,8.90
2022-10-14T09:20:01.467Z,10.10
2022-10-14T09:22:31.948Z,8.13
2022-10-14T09:25:02.093Z,9.03
2022-10-14T09:27:34.946Z,8.23
2022-10-14T09:30:10.837Z,8.10
2022-10-14T09:32:44.799Z,8.80
2022-10-14T09:35:24.063Z,7.57
2022-10-14T09:37:55.423Z,7.10
2022-10-14T09:40:32.643Z,7.70
2022-10-14T09:43:15.470Z,6.73
2022-10-14T09:45:52.514Z,7.10
2022-10-14T09:48:32.069Z,6.87
2022-10-14T09:51:04.980Z,7.07
2022-10-14T09:53:43.331Z,5.83
2022-10-14T09:56:13.848Z,6.60
2022-10-14T09:58:51.507Z,6.00
2022-10-14T10:01:24.723Z,5.67
2022-10-14T10:03:56.368Z,5.63
2022-10-14T10:06:30.227Z,4.93
2022-10-14T10:09:01.893Z,4.90
2022-10-14T10:11:33.973Z,4.63
2022-10-14T10:14:20.525Z,4.40
2022-10-14T10:16:53.447Z,5.20
2022-10-14T10:19:30.551Z,4.23
2022-10-14T10:25:27.379Z,4.33
2022-10-14T10:28:01.719Z,4.27
2022-10-14T10:30:41.822Z,4.40
2022-10-14T10:33:23.948Z,4.70
2022-10-14T10:39:00.211Z,4.73
2022-10-14T10:41:58.510Z,4.37
2022-10-14T10:44:58.888Z,4.17
2022-10-14T10:47:46.664Z,4.60
2022-10-14T10:50:28.866Z,5.23
2022-10-14T10:53:23.916Z,5.70
2022-10-14T10:56:02.853Z,4.23
2022-10-14T10:58:45.258Z,4.40
2022-10-14T11:01:28.163Z,6.10
2022-10-14T11:04:26.313Z,4.80
2022-10-14T11:07:17.483Z,4.03
2022-10-14T11:10:15.807Z,4.17
2022-10-14T11:12:56.146Z,4.73
2022-10-14T11:15:39.893Z,3.97
2022-10-14T11:18:14.986Z,3.37
2022-10-14T11:21:01.832Z,4.00
2022-10-14T11:23:50.767Z,3.90
2022-10-14T11:26:36.681Z,3.03
2022-10-14T11:29:16.204Z,3.57
2022-10-14T11:31:56.617Z,3.60
2022-10-14T11:34:45.815Z,3.00
2022-10-14T11:37:30.837Z,2.47
2022-10-14T11:40:04.454Z,2.60
2022-10-14T11:42:51.009Z,2.73
2022-10-14T11:45:46.776Z,3.07
2022-10-14T11:48:31.508Z,2.53
2022-10-14T11:51:11.054Z,2.37
2022-10-14T11:54:01.663Z,2.80
2022-10-14T11:56:48.869Z,2.40
2022-10-14T11:59:32.432Z,3.00
2022-10-14T12:02:20.072Z,2.90
2022-10-14T12:04:59.582Z,3.17
2022-10-14T12:07:35.331Z,2.73
2022-10-14T12:10:20.439Z,2.43
2022-10-14T12:12:52.873Z,2.80
2022-10-14T12:15:26.112Z,2.40
2022-10-14T12:17:58.953Z,2.63
2022-10-14T12:20:39.400Z,2.00
2022-10-14T12:23:11.263Z,3.17
2022-10-14T12:25:51.564Z,2.87
2022-10-14T12:28:24.038Z,2.70
2022-10-14T12:30:54.087Z,2.50
2022-10-14T12:33:24.148Z,2.73
2022-10-14T12:36:02.235Z,2.77
2022-10-14T12:38:35.885Z,3.43
2022-10-14T12:41:43.722Z,2.90
2022-10-14T12:44:18.830Z,2.97
2022-10-14T12:46:53.737Z,2.87
2022-10-14T12:49:31.651Z,3.60
2022-10-14T12:52:05.004Z,2.60
2022-10-14T12:54:35.819Z,3.10
2022-10-14T12:57:22.866Z,3.57
2022-10-14T12:59:54.501Z,3.30
2022-10-14T13:02:33.816Z,3.50
2022-10-14T13:05:08.188Z,3.43
2022-10-14T13:07:46.582Z,3.37
2022-10-14T13:10:50.365Z,3.17
2022-10-14T13:13:52.849Z,3.60
2022-10-14T13:16:59.952Z,2.90
2022-10-14T13:19:47.398Z,3.57
2022-10-14T13:22:43.696Z,3.73
2022-10-14T13:25:24.064Z,3.70
2022-10-14T13:28:06.790Z,3.90
2022-10-14T13:30:42.224Z,3.13
2022-10-14T13:33:25.201Z,3.70
2022-10-14T13:36:05.707Z,4.20
2022-10-14T13:38:38.479Z,3.60
2022-10-14T13:41:14.992Z,3.73
2022-10-14T13:43:46.538Z,3.17
2022-10-14T13:46:22.030Z,3.77
2022-10-14T13:48:58.718Z,3.90
2022-10-14T13:51:36.529Z,3.60
2022-10-14T13:54:19.387Z,4.67
2022-10-14T13:57:35.011Z,3.57
2022-10-14T14:00:39.630Z,3.30
2022-10-14T14:02:53.841Z,3.87
2022-10-14T14:05:39.137Z,3.60
2022-10-14T14:11:16.097Z,3.80
2022-10-14T14:13:57.509Z,3.93
2022-10-14T14:16:33.809Z,3.30
2022-10-14T14:19:09.126Z,4.37
2022-10-14T14:21:42.474Z,3.40
2022-10-14T14:24:22.383Z,4.20
2022-10-14T14:26:56.995Z,3.57
2022-10-14T14:29:29.711Z,4.50
2022-10-14T14:32:08.834Z,4.43
2022-10-14T14:34:41.206Z,4.03
2022-10-14T14:37:47.809Z,4.60
2022-10-14T14:40:17.229Z,4.10
2022-10-14T14:42:49.718Z,4.33
2022-10-14T14:45:25.550Z,4.30
2022-10-14T14:47:59.530Z,3.90
2022-10-14T14:50:34.830Z,3.67
2022-10-14T14:53:13.109Z,4.10
2022-10-14T14:55:48.653Z,3.47
2022-10-14T14:58:27.323Z,4.50
2022-10-14T15:00:57.644Z,4.17
2022-10-14T15:03:31.092Z,4.20
2022-10-14T15:06:03.401Z,3.80
2022-10-14T15:08:39.114Z,4.47
2022-10-14T15:11:09.141Z,4.20
2022-10-14T15:13:50.507Z,4.03
2022-10-14T15:16:36.027Z,3.93
2022-10-14T15:19:35.753Z,4.07
2022-10-14T15:22:23.910Z,3.80
2022-10-14T15:25:05.404Z,4.30
2022-10-14T15:27:53.508Z,4.17
2022-10-14T15:30:53.312Z,3.87
2022-10-14T15:33:25.238Z,4.43
2022-10-14T15:35:58.888Z,4.13
2022-10-14T15:41:02.494Z,4.27
2022-10-14T15:43:33.193Z,4.30
2022-10-14T15:46:15.715Z,3.97
2022-10-14T15:48:52.795Z,4.67
2022-10-14T15:51:24.124Z,5.80
2022-10-14T15:53:55.027Z,4.40
2022-10-14T15:56:27.526Z,3.77
2022-10-14T15:58:58.127Z,4.23
2022-10-14T16:01:28.190Z,3.90
2022-10-14T16:03:59.840Z,3.90
